Decoded Metar for SBFI (FOZ DO IGUACU in BRAZIL) (IATA:IGU) | Meteo·Mobile Aviation Weather
aviador You're here:

SBFI Decoded Metar

FOZ DO IGUACU in BRAZIL
Report Time2019-04-19 22:00:00
UTC Time2019-04-19 22:26:30
Flight Rules vfr VFR
Wind110° at 04 kt
W.Decomp.*RWY 14: 3.8 kt HW 1.1 kt LCW
Visibility9999 m
Phenomena:N/A
Clouds:Few 030 Hf
Expected CloudBase > 1,600 ft AGL from Temp-Dew spread
CeilingNone
Temp25°C (ISA +12)
Dew Point21°C (79% RH)
QNH1011 hPa
Density Alt2,536 ft
Elevation797 ft
Report Wrong Elevation
Raw Report
METAR SBFI 192200Z 11004KT 9999 FEW030 25/21 Q1011=

Extra information for SBFI:More info

Metar Taf Metar & Taf Last 4 Metars F.Rules Stats Wind Profile Meteogram Temp Stats Airport Information Weather charts Add Link Nearby VenuesMetar ALERT Operation Metar Decoded Social comments